Time;durP1;ratioP1;P1;durP2;ratioP2;P2;SDS_P1;SDS_P2;PMS_P1;PMS_P2;Temp;Humidity;BMP_temperature;BMP_pressure;BME280_temperature;BME280_humidity;BME280_pressure;Samples;Min_cycle;Max_cycle;Signal;HPM_P1;HPM_P2
2021/12/07 00:00:31;;;;;;;27.17;15.73;;;2.50;99.90;;;;;;5010693;28;20037;-85
2021/12/07 00:02:56;;;;;;;27.90;14.80;;;2.50;99.90;;;;;;5004278;28;21993;-85
2021/12/07 00:05:22;;;;;;;29.38;15.73;;;2.50;99.90;;;;;;5004747;28;20041;-85
2021/12/07 00:07:48;;;;;;;23.45;14.05;;;2.40;99.90;;;;;;4989987;28;20122;-85
2021/12/07 00:10:15;;;;;;;25.77;15.00;;;2.40;99.90;;;;;;5010351;28;20485;-85
2021/12/07 00:12:44;;;;;;;26.02;15.60;;;2.30;99.90;;;;;;5004228;28;20366;-85
2021/12/07 00:15:12;;;;;;;26.27;16.02;;;2.30;99.90;;;;;;5010339;28;20038;-86
2021/12/07 00:17:38;;;;;;;26.98;15.85;;;2.20;99.90;;;;;;5010120;28;20503;-86
2021/12/07 00:20:08;;;;;;;26.55;15.18;;;2.20;99.90;;;;;;5019736;28;20062;-86
2021/12/07 00:22:35;;;;;;;25.67;15.52;;;2.10;99.90;;;;;;4993103;28;20484;-86
2021/12/07 00:25:00;;;;;;;26.13;16.10;;;2.10;99.90;;;;;;5005036;28;20038;-85
2021/12/07 00:27:26;;;;;;;25.15;15.93;;;2.10;99.90;;;;;;5007498;28;20087;-86
2021/12/07 00:29:52;;;;;;;28.65;16.15;;;2.00;99.90;;;;;;5003447;28;20041;-86
2021/12/07 00:32:27;;;;;;;28.13;16.75;;;2.00;99.90;;;;;;5007463;28;20045;-86
2021/12/07 00:35:23;;;;;;;24.23;14.30;;;2.10;99.90;;;;;;5009830;28;20128;-86
2021/12/07 00:37:57;;;;;;;25.42;15.68;;;1.90;99.90;;;;;;5000502;28;20057;-86
2021/12/07 00:40:24;;;;;;;27.58;15.35;;;1.90;99.90;;;;;;5004890;28;20497;-85
2021/12/07 00:42:49;;;;;;;28.05;17.05;;;1.90;99.90;;;;;;5007079;28;20172;-86
2021/12/07 00:45:19;;;;;;;28.80;16.58;;;1.90;99.90;;;;;;5007762;28;20117;-86
2021/12/07 00:47:46;;;;;;;27.17;16.60;;;1.80;99.90;;;;;;5023377;28;20046;-86
2021/12/07 00:50:13;;;;;;;28.67;16.35;;;1.80;99.90;;;;;;4993601;28;20052;-86
2021/12/07 00:52:39;;;;;;;28.60;16.42;;;1.80;99.90;;;;;;5007371;28;20056;-86
2021/12/07 00:55:10;;;;;;;28.38;16.88;;;2.30;99.90;;;;;;5008521;28;20077;-86
2021/12/07 00:57:36;;;;;;;24.35;15.82;;;1.80;99.90;;;;;;5006892;28;20050;-86
2021/12/07 01:00:05;;;;;;;29.45;17.13;;;1.80;99.90;;;;;;5007132;28;20042;-86
2021/12/07 01:02:31;;;;;;;27.95;16.90;;;1.80;99.90;;;;;;5004297;28;20077;-85
2021/12/07 01:05:03;;;;;;;27.40;16.17;;;1.80;99.90;;;;;;5009371;28;20331;-85
2021/12/07 01:26:41;;;;;;;24.63;15.88;;;1.70;99.90;;;;;;5010370;28;20046;-85
2021/12/07 01:29:07;;;;;;;25.52;15.38;;;1.70;99.90;;;;;;5011385;28;20479;-85
2021/12/07 01:31:46;;;;;;;25.13;15.70;;;1.70;99.90;;;;;;5011079;28;20049;-86
2021/12/07 01:34:36;;;;;;;25.42;16.38;;;1.70;99.90;;;;;;5012329;28;20042;-86
2021/12/07 01:45:22;;;;;;;22.48;14.52;;;1.90;99.90;;;;;;5013028;28;20097;-86
2021/12/07 01:53:17;;;;;;;26.13;16.30;;;1.80;99.90;;;;;;5012106;28;20096;-85
2021/12/07 01:57:52;;;;;;;24.10;14.90;;;2.40;99.90;;;;;;5026221;28;20050;-85
2021/12/07 02:01:09;;;;;;;24.20;15.05;;;2.20;99.90;;;;;;5011681;28;20085;-86
2021/12/07 02:03:35;;;;;;;23.60;15.00;;;1.80;99.90;;;;;;5009989;28;20137;-85
2021/12/07 02:06:01;;;;;;;28.00;15.75;;;1.80;99.90;;;;;;4993180;28;20038;-85
2021/12/07 02:08:26;;;;;;;23.83;14.85;;;1.80;99.90;;;;;;5028423;28;20267;-85
2021/12/07 02:10:56;;;;;;;23.67;14.88;;;1.90;99.90;;;;;;5005085;28;20038;-85
2021/12/07 02:15:57;;;;;;;21.38;13.85;;;1.80;99.90;;;;;;5006196;28;20103;-86
2021/12/07 02:18:23;;;;;;;24.02;14.57;;;1.90;99.90;;;;;;5011966;28;20045;-86
2021/12/07 02:20:49;;;;;;;23.45;14.45;;;1.90;99.90;;;;;;5007047;28;20050;-86
2021/12/07 02:23:15;;;;;;;25.58;14.77;;;1.80;99.90;;;;;;5002288;28;20038;-86
2021/12/07 02:25:42;;;;;;;22.95;14.35;;;1.80;99.90;;;;;;5004654;28;20042;-86
2021/12/07 02:28:13;;;;;;;20.48;13.50;;;2.30;99.90;;;;;;5025979;28;20053;-86
2021/12/07 02:30:39;;;;;;;21.63;13.93;;;1.90;99.90;;;;;;5010431;28;20373;-86
2021/12/07 02:33:05;;;;;;;20.27;12.77;;;1.90;99.90;;;;;;5011024;28;20480;-86
2021/12/07 02:35:30;;;;;;;21.98;12.90;;;1.90;99.90;;;;;;5010647;28;20041;-86
2021/12/07 02:37:58;;;;;;;22.58;13.70;;;1.90;99.90;;;;;;5027078;28;20053;-86
2021/12/07 02:40:24;;;;;;;23.58;13.75;;;1.90;99.90;;;;;;5019868;28;20706;-86
2021/12/07 02:42:50;;;;;;;19.05;12.45;;;1.90;99.90;;;;;;5004113;28;20038;-86
2021/12/07 02:45:18;;;;;;;21.67;12.63;;;2.00;99.90;;;;;;5010343;28;20443;-86
2021/12/07 02:47:45;;;;;;;22.23;12.57;;;1.90;99.90;;;;;;5008712;28;20041;-86
2021/12/07 02:50:11;;;;;;;20.20;12.23;;;1.90;99.90;;;;;;5000667;28;20069;-86
2021/12/07 02:52:37;;;;;;;22.05;12.50;;;1.80;99.90;;;;;;5011920;28;20041;-86
2021/12/07 02:55:05;;;;;;;20.88;12.85;;;1.80;99.90;;;;;;5028186;28;20121;-86
2021/12/07 02:57:31;;;;;;;21.98;12.68;;;1.80;99.90;;;;;;5007129;28;20180;-86
2021/12/07 03:00:06;;;;;;;18.58;11.45;;;1.80;99.90;;;;;;5010374;28;20120;-86
2021/12/07 03:02:37;;;;;;;19.83;12.23;;;1.80;99.90;;;;;;5007189;28;20057;-86
2021/12/07 03:05:14;;;;;;;17.98;11.02;;;1.90;99.90;;;;;;5024878;28;20042;-86
2021/12/07 03:08:03;;;;;;;18.25;11.23;;;1.90;99.90;;;;;;5005858;28;20511;-86
2021/12/07 03:26:54;;;;;;;17.33;10.55;;;2.00;99.90;;;;;;5003893;28;20046;-86
2021/12/07 03:29:20;;;;;;;16.45;11.15;;;2.00;99.90;;;;;;5002599;28;20035;-86
2021/12/07 03:31:45;;;;;;;18.08;10.75;;;2.00;99.90;;;;;;5026829;28;20046;-86
2021/12/07 03:34:11;;;;;;;17.80;10.43;;;2.00;99.90;;;;;;5005969;28;20046;-86
2021/12/07 03:36:37;;;;;;;17.50;11.20;;;2.10;99.90;;;;;;5007916;28;20129;-86
2021/12/07 03:39:04;;;;;;;15.82;10.70;;;2.10;99.90;;;;;;5008298;28;20124;-86
2021/12/07 03:41:30;;;;;;;17.50;10.23;;;2.10;99.90;;;;;;5007909;28;20053;-86
2021/12/07 03:43:56;;;;;;;17.77;10.75;;;2.10;99.90;;;;;;5010803;28;20037;-86
2021/12/07 03:46:21;;;;;;;17.30;10.23;;;2.10;99.90;;;;;;5009882;28;20158;-86
2021/12/07 03:48:48;;;;;;;18.52;10.57;;;2.30;99.90;;;;;;5009652;28;20397;-86
2021/12/07 03:51:15;;;;;;;17.50;9.88;;;2.20;99.90;;;;;;5011936;28;20555;-86
2021/12/07 03:53:41;;;;;;;16.23;10.10;;;2.20;99.90;;;;;;5019009;28;20401;-86
2021/12/07 03:56:08;;;;;;;17.90;10.13;;;2.30;99.90;;;;;;5011196;28;20046;-86
2021/12/07 03:58:34;;;;;;;19.42;10.98;;;2.20;99.90;;;;;;4994879;28;20034;-86
2021/12/07 04:01:01;;;;;;;18.20;10.38;;;2.10;99.90;;;;;;5005131;28;20129;-86
2021/12/07 04:03:32;;;;;;;16.83;10.68;;;2.10;99.90;;;;;;5008878;28;20475;-86
2021/12/07 04:06:04;;;;;;;18.60;11.03;;;2.10;99.90;;;;;;5009624;28;20128;-86
2021/12/07 04:08:30;;;;;;;17.75;10.35;;;2.30;99.90;;;;;;5010904;28;20643;-86
2021/12/07 04:10:56;;;;;;;16.40;10.25;;;2.10;99.90;;;;;;5010575;28;20040;-86
2021/12/07 04:13:22;;;;;;;18.80;10.82;;;2.10;99.90;;;;;;5010031;28;20030;-86
2021/12/07 04:15:48;;;;;;;19.25;11.48;;;2.10;99.90;;;;;;5005234;28;20042;-86
2021/12/07 04:18:14;;;;;;;16.48;10.93;;;2.10;99.90;;;;;;4999225;28;20053;-86
2021/12/07 04:20:40;;;;;;;14.95;9.75;;;2.10;99.90;;;;;;4999956;28;20034;-86
2021/12/07 04:23:06;;;;;;;15.98;10.20;;;2.10;99.90;;;;;;5005281;28;20084;-86
2021/12/07 04:25:32;;;;;;;16.92;10.60;;;2.10;99.90;;;;;;4993955;28;20042;-86
2021/12/07 04:27:58;;;;;;;18.27;9.90;;;2.20;99.90;;;;;;5004780;28;20045;-86
2021/12/07 04:30:30;;;;;;;17.65;10.68;;;2.10;99.90;;;;;;5009561;28;20092;-86
2021/12/07 04:32:56;;;;;;;17.92;10.18;;;2.10;99.90;;;;;;5001542;28;20251;-86
2021/12/07 04:35:22;;;;;;;18.27;10.40;;;2.10;99.90;;;;;;5007816;28;20493;-86
2021/12/07 04:37:48;;;;;;;17.40;10.20;;;2.20;99.90;;;;;;5005904;28;20074;-86
2021/12/07 04:40:18;;;;;;;16.83;10.27;;;2.20;99.90;;;;;;5000043;28;20070;-86
2021/12/07 04:42:44;;;;;;;17.23;9.90;;;2.10;99.90;;;;;;5005566;28;20046;-86
2021/12/07 04:45:18;;;;;;;15.40;10.27;;;2.20;99.90;;;;;;5005832;28;20037;-86
2021/12/07 04:58:50;;;;;;;18.90;9.98;;;2.10;99.90;;;;;;5005261;28;20042;-86
2021/12/07 05:01:15;;;;;;;18.30;10.35;;;2.00;99.90;;;;;;5012858;28;20084;-86
2021/12/07 05:03:42;;;;;;;17.60;10.25;;;2.00;99.90;;;;;;5026876;28;20069;-86
2021/12/07 05:06:10;;;;;;;18.60;10.18;;;1.90;99.90;;;;;;5009514;28;20050;-86
2021/12/07 05:08:50;;;;;;;17.75;10.05;;;2.40;99.90;;;;;;5009080;28;20120;-86
2021/12/07 05:16:34;;;;;;;16.13;9.40;;;2.00;99.90;;;;;;5010761;28;20074;-86
2021/12/07 05:24:17;;;;;;;21.38;10.50;;;2.00;99.90;;;;;;5010066;28;20298;-85
2021/12/07 05:40:07;;;;;;;15.40;9.27;;;2.00;99.90;;;;;;5008563;28;20046;-86
2021/12/07 05:42:35;;;;;;;20.17;9.93;;;1.90;99.90;;;;;;5010841;28;20038;-84
2021/12/07 05:45:01;;;;;;;21.98;9.77;;;1.90;99.90;;;;;;5012464;28;20136;-86
2021/12/07 05:47:26;;;;;;;20.67;10.60;;;1.90;99.90;;;;;;5013494;28;20528;-86
2021/12/07 05:49:52;;;;;;;24.08;10.05;;;1.90;99.90;;;;;;5014883;28;20042;-85
2021/12/07 05:52:18;;;;;;;17.55;9.43;;;2.30;99.90;;;;;;4995893;28;20038;-85
2021/12/07 05:54:43;;;;;;;21.02;10.38;;;2.00;99.90;;;;;;5004858;28;20390;-86
2021/12/07 05:57:09;;;;;;;17.73;10.18;;;2.00;99.90;;;;;;5011573;28;20038;-85
2021/12/07 05:59:35;;;;;;;20.50;10.70;;;2.00;99.90;;;;;;4999483;28;20033;-87
2021/12/07 06:02:01;;;;;;;18.60;9.93;;;2.00;99.90;;;;;;4997594;28;20512;-87
2021/12/07 06:04:30;;;;;;;22.55;10.05;;;2.00;99.90;;;;;;4993105;28;20034;-88
2021/12/07 06:06:57;;;;;;;21.15;10.50;;;2.00;99.90;;;;;;5013223;28;20117;-87
2021/12/07 06:09:22;;;;;;;24.23;10.60;;;2.00;99.90;;;;;;5013672;28;20038;-87
2021/12/07 06:11:50;;;;;;;21.58;9.82;;;1.90;99.90;;;;;;5014100;28;20439;-88
2021/12/07 06:14:20;;;;;;;21.33;10.18;;;2.00;99.90;;;;;;4995361;28;20034;-88
2021/12/07 06:16:47;;;;;;;20.35;9.88;;;2.00;99.90;;;;;;4995056;28;20400;-87
2021/12/07 06:19:12;;;;;;;20.02;9.40;;;2.00;99.90;;;;;;5010034;28;20046;-87
2021/12/07 06:21:38;;;;;;;18.75;9.80;;;2.00;99.90;;;;;;5012921;28;20044;-85
2021/12/07 06:24:04;;;;;;;20.90;10.13;;;2.00;99.90;;;;;;5006948;28;20107;-84
2021/12/07 06:26:30;;;;;;;21.77;10.95;;;2.00;99.90;;;;;;5013517;28;20045;-86
2021/12/07 06:28:55;;;;;;;19.95;9.93;;;2.00;99.90;;;;;;5001890;28;20038;-86
2021/12/07 06:31:21;;;;;;;20.60;10.15;;;2.00;99.90;;;;;;5012108;28;20111;-86
2021/12/07 06:33:46;;;;;;;21.52;9.77;;;2.00;99.90;;;;;;5006927;28;20492;-87
2021/12/07 06:36:14;;;;;;;22.92;9.77;;;2.00;99.90;;;;;;4993295;28;20038;-85
2021/12/07 06:38:39;;;;;;;19.20;9.70;;;1.90;99.90;;;;;;4991730;28;20040;-84
2021/12/07 06:41:05;;;;;;;18.98;10.60;;;1.90;99.90;;;;;;5008504;28;20049;-83
2021/12/07 06:43:32;;;;;;;22.17;10.48;;;1.90;99.90;;;;;;5006478;28;20042;-83
2021/12/07 06:45:57;;;;;;;18.40;9.60;;;1.90;99.90;;;;;;5009381;28;20053;-83
2021/12/07 06:48:23;;;;;;;24.83;10.15;;;1.90;99.90;;;;;;5010440;28;20041;-83
2021/12/07 06:50:49;;;;;;;23.52;10.00;;;1.90;99.90;;;;;;5007784;28;20040;-83
2021/12/07 06:53:16;;;;;;;24.08;10.07;;;1.90;99.90;;;;;;5012364;28;20045;-83
2021/12/07 06:55:42;;;;;;;19.88;8.80;;;1.90;99.90;;;;;;5012089;28;20033;-83
2021/12/07 06:58:07;;;;;;;23.27;9.82;;;1.90;99.90;;;;;;5008070;28;20101;-83
2021/12/07 07:00:33;;;;;;;22.98;9.75;;;1.80;99.90;;;;;;5012861;28;20087;-83
2021/12/07 07:02:59;;;;;;;22.08;9.07;;;1.80;99.90;;;;;;5013795;28;20053;-83
2021/12/07 07:05:25;;;;;;;18.48;9.88;;;1.80;99.90;;;;;;5010500;28;20046;-83
2021/12/07 07:07:51;;;;;;;19.75;9.45;;;1.70;99.90;;;;;;5029250;28;20301;-83
2021/12/07 07:10:18;;;;;;;25.38;9.35;;;1.70;99.90;;;;;;5010894;28;20044;-83
2021/12/07 07:12:45;;;;;;;19.80;9.13;;;1.80;99.90;;;;;;5014022;28;20057;-86
2021/12/07 07:15:12;;;;;;;20.38;8.77;;;1.80;99.90;;;;;;5004757;28;20046;-86
2021/12/07 07:17:39;;;;;;;18.52;8.35;;;1.80;99.90;;;;;;5008270;28;20718;-86
2021/12/07 07:20:07;;;;;;;21.58;8.02;;;1.80;99.90;;;;;;5002232;28;20076;-85
2021/12/07 07:22:33;;;;;;;21.08;8.57;;;1.90;99.90;;;;;;5004383;28;20065;-85
2021/12/07 07:24:58;;;;;;;22.52;8.35;;;2.00;99.90;;;;;;5003064;28;20064;-85
2021/12/07 07:27:24;;;;;;;17.40;7.13;;;2.00;99.90;;;;;;5019373;28;20093;-84
2021/12/07 07:29:50;;;;;;;19.17;7.80;;;2.10;99.90;;;;;;5002288;28;20073;-86
2021/12/07 07:32:17;;;;;;;19.27;7.50;;;2.10;99.90;;;;;;4998790;28;20037;-86
2021/12/07 07:34:43;;;;;;;24.52;8.15;;;2.20;99.90;;;;;;5001057;28;20505;-86
2021/12/07 07:37:09;;;;;;;26.88;8.65;;;2.20;99.90;;;;;;5000618;28;20044;-86
2021/12/07 07:39:35;;;;;;;24.58;8.18;;;2.30;99.90;;;;;;5011069;28;20492;-86
2021/12/07 07:42:00;;;;;;;16.52;7.05;;;2.20;99.90;;;;;;5005448;28;20040;-86
2021/12/07 07:44:26;;;;;;;17.92;7.68;;;2.20;99.90;;;;;;5004235;28;20119;-86
2021/12/07 07:46:51;;;;;;;20.80;7.75;;;2.30;99.90;;;;;;5037986;28;20098;-85
2021/12/07 07:49:17;;;;;;;17.48;7.70;;;2.20;99.90;;;;;;4993601;28;20036;-84
2021/12/07 07:51:43;;;;;;;17.05;6.97;;;2.30;99.90;;;;;;5004198;28;20038;-85
2021/12/07 07:54:08;;;;;;;16.27;7.10;;;2.30;99.90;;;;;;5023918;28;20476;-84
2021/12/07 07:56:36;;;;;;;16.15;7.75;;;2.30;99.90;;;;;;5013819;28;20566;-84
2021/12/07 07:59:03;;;;;;;19.00;7.47;;;2.30;99.90;;;;;;5001608;28;20096;-85
2021/12/07 08:01:31;;;;;;;22.73;7.25;;;2.30;99.90;;;;;;5003063;28;20489;-85
2021/12/07 08:04:00;;;;;;;16.27;7.53;;;2.30;99.90;;;;;;5002986;28;20038;-88
2021/12/07 08:06:25;;;;;;;23.45;7.88;;;2.30;99.90;;;;;;5001450;28;20475;-88
2021/12/07 08:08:51;;;;;;;16.92;7.15;;;2.30;99.90;;;;;;5001452;28;20118;-88
2021/12/07 08:11:17;;;;;;;19.23;7.70;;;2.30;99.90;;;;;;5010786;28;20034;-87
2021/12/07 08:13:43;;;;;;;15.68;6.95;;;2.30;99.90;;;;;;5003538;28;20050;-87
2021/12/07 08:16:15;;;;;;;24.13;8.05;;;2.30;99.90;;;;;;5005389;28;20038;-87
2021/12/07 08:18:45;;;;;;;18.80;7.35;;;2.30;99.90;;;;;;5003915;28;20125;-87
2021/12/07 08:21:12;;;;;;;23.23;8.25;;;2.30;99.90;;;;;;5010212;28;20041;-86
2021/12/07 08:23:39;;;;;;;24.88;8.70;;;2.40;99.90;;;;;;5005270;28;20451;-87
2021/12/07 08:26:06;;;;;;;30.95;14.63;;;2.30;99.90;;;;;;5006776;28;20116;-86
2021/12/07 08:28:32;;;;;;;22.45;11.93;;;2.40;99.90;;;;;;5008356;28;20052;-86
2021/12/07 08:30:58;;;;;;;23.65;9.52;;;2.40;99.90;;;;;;5008563;28;20076;-86
2021/12/07 08:33:24;;;;;;;21.55;9.23;;;2.40;99.90;;;;;;5003933;28;20416;-86
2021/12/07 08:35:50;;;;;;;22.40;8.70;;;2.50;99.90;;;;;;4988693;28;20046;-87
2021/12/07 08:38:16;;;;;;;16.15;8.23;;;2.50;99.90;;;;;;5004866;28;20512;-87
2021/12/07 08:40:42;;;;;;;19.92;7.72;;;2.50;99.90;;;;;;5003230;28;20038;-86
2021/12/07 08:43:12;;;;;;;17.80;7.53;;;2.50;99.90;;;;;;5008844;28;20042;-87
2021/12/07 08:45:39;;;;;;;24.73;9.27;;;2.50;99.90;;;;;;4987441;28;20409;-86
2021/12/07 08:48:05;;;;;;;20.40;8.43;;;2.50;99.90;;;;;;4986735;28;20061;-86
2021/12/07 08:50:31;;;;;;;20.65;7.97;;;2.50;99.90;;;;;;5009554;28;20519;-86
2021/12/07 08:53:02;;;;;;;21.02;7.72;;;2.50;99.90;;;;;;5006705;28;20069;-86
2021/12/07 09:00:59;;;;;;;23.25;7.95;;;2.60;99.90;;;;;;5020484;28;20462;-86
2021/12/07 09:03:25;;;;;;;20.73;8.98;;;2.60;99.90;;;;;;5002143;28;20045;-86
2021/12/07 09:05:51;;;;;;;20.27;7.68;;;2.60;99.90;;;;;;5006224;28;20034;-86
2021/12/07 09:08:17;;;;;;;23.50;7.80;;;2.60;99.90;;;;;;5004819;28;20034;-87
2021/12/07 09:10:43;;;;;;;22.95;7.75;;;2.70;99.90;;;;;;5008495;28;20104;-87
2021/12/07 09:13:10;;;;;;;18.27;7.05;;;2.70;99.90;;;;;;5006407;28;20042;-87
2021/12/07 09:15:35;;;;;;;18.83;7.35;;;2.70;99.90;;;;;;5008008;28;20026;-86
2021/12/07 09:18:01;;;;;;;19.60;7.65;;;2.70;99.90;;;;;;5005451;28;20040;-86
2021/12/07 09:20:28;;;;;;;20.05;7.18;;;2.70;99.90;;;;;;5008621;28;20044;-84
2021/12/07 09:22:53;;;;;;;18.80;6.75;;;2.80;99.90;;;;;;5010822;28;20067;-86
2021/12/07 09:25:19;;;;;;;23.73;7.57;;;2.80;99.90;;;;;;5028363;28;20056;-85
2021/12/07 09:27:45;;;;;;;15.80;6.68;;;2.80;99.90;;;;;;5027122;28;20045;-86
2021/12/07 09:30:13;;;;;;;17.67;6.75;;;2.80;99.90;;;;;;5029293;28;20038;-87
2021/12/07 09:32:39;;;;;;;25.25;7.47;;;2.80;99.90;;;;;;5012335;28;20045;-87
2021/12/07 09:35:07;;;;;;;22.38;7.18;;;2.90;99.90;;;;;;5031817;28;20057;-87
2021/12/07 09:37:34;;;;;;;19.13;6.82;;;2.90;99.90;;;;;;5031199;28;20096;-86
2021/12/07 09:40:00;;;;;;;20.52;6.65;;;3.00;99.90;;;;;;5034326;28;20105;-87
2021/12/07 09:42:26;;;;;;;19.85;6.10;;;3.00;99.90;;;;;;5032912;28;20038;-84
2021/12/07 09:44:52;;;;;;;20.38;6.68;;;3.10;99.90;;;;;;5031456;28;20038;-83
2021/12/07 09:47:18;;;;;;;17.58;6.05;;;3.10;99.90;;;;;;5030786;28;20046;-84
2021/12/07 09:49:44;;;;;;;16.35;6.00;;;3.10;99.90;;;;;;5030667;28;20044;-84
2021/12/07 09:52:09;;;;;;;19.02;6.20;;;3.10;99.90;;;;;;5025753;28;20416;-84
2021/12/07 09:54:35;;;;;;;17.13;6.43;;;3.20;99.90;;;;;;5016124;28;20037;-84
2021/12/07 09:57:01;;;;;;;17.15;6.72;;;3.20;99.90;;;;;;5013002;28;20069;-83
2021/12/07 09:59:26;;;;;;;18.45;6.25;;;3.20;99.90;;;;;;5015974;28;20076;-84
2021/12/07 10:01:52;;;;;;;18.80;6.20;;;3.30;99.90;;;;;;5010736;28;20392;-84
2021/12/07 10:04:18;;;;;;;19.10;6.40;;;3.30;99.90;;;;;;5015327;28;20043;-84
2021/12/07 10:06:44;;;;;;;17.90;6.03;;;3.20;99.90;;;;;;5015416;28;20053;-84
2021/12/07 10:09:10;;;;;;;19.33;6.10;;;3.20;99.90;;;;;;5009325;28;20408;-84
2021/12/07 10:11:36;;;;;;;17.25;5.80;;;3.20;99.90;;;;;;5011980;28;20045;-84
2021/12/07 10:14:03;;;;;;;13.98;6.03;;;3.30;99.90;;;;;;5014887;28;20046;-84
2021/12/07 10:16:29;;;;;;;16.15;6.03;;;3.30;99.90;;;;;;5014285;28;20108;-84
2021/12/07 10:18:54;;;;;;;12.27;6.10;;;3.30;99.90;;;;;;5004061;28;20049;-84
2021/12/07 10:21:31;;;;;;;17.25;7.32;;;3.40;99.90;;;;;;5030531;28;20488;-84
2021/12/07 10:24:02;;;;;;;16.17;6.13;;;3.40;99.90;;;;;;5014442;28;20033;-84
2021/12/07 10:26:35;;;;;;;19.23;7.38;;;3.50;99.90;;;;;;5014613;28;20034;-84
2021/12/07 10:29:09;;;;;;;22.25;6.53;;;3.50;99.90;;;;;;5014460;28;20049;-84
2021/12/07 10:31:38;;;;;;;20.45;6.75;;;3.60;99.90;;;;;;5014558;28;20077;-84
2021/12/07 10:34:10;;;;;;;15.45;6.20;;;3.60;99.90;;;;;;5014612;28;20045;-84
2021/12/07 10:36:39;;;;;;;;;;;3.70;99.90;;;;;;5014921;28;20120;-84
2021/12/07 10:39:10;;;;;;;24.58;5.90;;;3.70;99.90;;;;;;5014544;28;19977;-84
2021/12/07 10:41:40;;;;;;;20.80;6.72;;;3.70;99.90;;;;;;5011276;28;20077;-84
2021/12/07 10:44:20;;;;;;;27.38;7.35;;;3.70;99.90;;;;;;5014553;28;20034;-84
2021/12/07 10:46:56;;;;;;;20.90;6.85;;;3.80;99.90;;;;;;5011750;28;20045;-84
2021/12/07 10:49:30;;;;;;;17.85;6.55;;;3.80;99.90;;;;;;5012661;28;20073;-84
2021/12/07 10:52:14;;;;;;;22.75;6.75;;;3.80;99.90;;;;;;5013018;28;20440;-84
2021/12/07 10:54:56;;;;;;;19.40;7.10;;;3.90;99.90;;;;;;5006990;28;20073;-84
2021/12/07 10:57:27;;;;;;;20.35;6.68;;;4.00;99.90;;;;;;5013092;28;20045;-84
2021/12/07 11:00:05;;;;;;;20.23;6.22;;;4.00;99.90;;;;;;5020461;28;20097;-84
2021/12/07 11:02:33;;;;;;;18.42;6.68;;;4.00;99.90;;;;;;5003510;28;20052;-84
2021/12/07 11:05:01;;;;;;;23.25;7.25;;;4.10;99.90;;;;;;5016299;28;20068;-84
2021/12/07 11:07:29;;;;;;;23.30;7.18;;;4.10;99.90;;;;;;5029297;28;20038;-83
2021/12/07 11:10:19;;;;;;;17.60;6.57;;;4.10;99.90;;;;;;5030181;28;20082;-84
2021/12/07 11:13:34;;;;;;;18.20;6.60;;;4.20;99.90;;;;;;5010889;28;20093;-84
2021/12/07 11:15:56;;;;;;;21.02;7.80;;;4.30;99.90;;;;;;5022805;28;20105;-85
2021/12/07 11:18:26;;;;;;;15.43;6.70;;;4.30;99.90;;;;;;5022877;28;20072;-84
2021/12/07 11:20:54;;;;;;;24.08;7.20;;;4.30;99.90;;;;;;5030108;28;20048;-84
2021/12/07 11:23:24;;;;;;;21.75;7.00;;;4.40;99.90;;;;;;5046954;28;20046;-84
2021/12/07 11:29:39;;;;;;;24.55;8.00;;;4.40;99.90;;;;;;5030671;28;20050;-84
2021/12/07 11:31:45;;;;;;;18.17;6.75;;;4.50;99.90;;;;;;5013400;28;20038;-84
2021/12/07 11:34:18;;;;;;;21.50;6.63;;;4.60;99.90;;;;;;5013840;28;20048;-84
2021/12/07 11:36:48;;;;;;;18.17;6.70;;;4.60;99.90;;;;;;5029958;28;20045;-84
2021/12/07 11:39:35;;;;;;;18.80;6.70;;;4.60;99.90;;;;;;5013668;28;20137;-84
2021/12/07 11:42:12;;;;;;;19.15;7.45;;;4.60;99.90;;;;;;5004405;28;20041;-84
2021/12/07 11:44:58;;;;;;;18.42;7.05;;;4.70;99.90;;;;;;5013514;28;20044;-84
2021/12/07 11:47:33;;;;;;;17.38;6.85;;;4.70;99.90;;;;;;5026588;28;20042;-85
2021/12/07 11:50:09;;;;;;;16.83;6.90;;;4.70;99.90;;;;;;5046070;28;20061;-87
2021/12/07 11:52:36;;;;;;;18.27;6.95;;;4.80;99.90;;;;;;5022688;28;20030;-84
2021/12/07 11:55:03;;;;;;;21.20;7.47;;;4.90;99.90;;;;;;5030984;28;20049;-84
2021/12/07 11:57:28;;;;;;;17.77;7.15;;;4.90;99.90;;;;;;5033458;28;20045;-90
2021/12/07 11:59:54;;;;;;;18.92;7.13;;;4.90;99.90;;;;;;5037545;28;20029;-88
2021/12/07 12:02:21;;;;;;;18.02;7.57;;;4.90;99.90;;;;;;5033032;28;20038;-88
2021/12/07 12:04:46;;;;;;;19.90;6.85;;;4.90;99.90;;;;;;5036745;28;20040;-89
2021/12/07 12:07:12;;;;;;;23.23;7.22;;;5.00;99.90;;;;;;5037353;28;20034;-88
2021/12/07 12:09:46;;;;;;;19.83;7.13;;;5.00;99.90;;;;;;5031532;28;20056;-88
2021/12/07 12:12:16;;;;;;;20.33;6.72;;;5.10;99.90;;;;;;5012354;28;20104;-89
2021/12/07 12:15:03;;;;;;;19.75;6.93;;;5.00;99.90;;;;;;5011286;28;20042;-88
2021/12/07 12:17:36;;;;;;;17.45;6.32;;;5.10;99.90;;;;;;5049004;22;20049;-53
2021/12/07 12:20:24;;;;;;;16.25;6.47;;;5.10;99.90;;;;;;5026393;28;20039;-54
2021/12/07 12:23:20;;;;;;;20.85;6.32;;;5.10;99.90;;;;;;5026587;28;20046;-53
2021/12/07 12:25:55;;;;;;;21.60;6.72;;;5.20;99.90;;;;;;5017850;28;20454;-54
2021/12/07 12:28:31;;;;;;;20.73;6.07;;;5.20;99.90;;;;;;5008635;28;20036;-53
2021/12/07 12:30:57;;;;;;;19.85;6.80;;;5.20;99.90;;;;;;5011212;28;20025;-53
2021/12/07 12:33:23;;;;;;;15.73;6.70;;;5.10;99.90;;;;;;5009524;28;20172;-53
2021/12/07 12:35:54;;;;;;;21.75;7.05;;;5.10;99.90;;;;;;5005915;28;20053;-53
2021/12/07 12:38:27;;;;;;;18.95;6.90;;;5.10;99.90;;;;;;5009594;28;20030;-53
2021/12/07 12:40:58;;;;;;;17.20;6.75;;;5.20;99.90;;;;;;5007603;28;20256;-54
2021/12/07 12:43:54;;;;;;;21.05;7.40;;;5.20;99.90;;;;;;5013340;28;20061;-54
2021/12/07 12:46:28;;;;;;;23.17;7.63;;;5.20;99.90;;;;;;5012733;28;20110;-53
2021/12/07 12:49:04;;;;;;;22.58;7.22;;;5.20;99.90;;;;;;5009682;28;20045;-54
2021/12/07 12:51:42;;;;;;;22.20;7.40;;;5.20;99.90;;;;;;5011162;28;20084;-55
2021/12/07 12:54:09;;;;;;;19.02;7.47;;;5.20;99.90;;;;;;5013394;28;20410;-54
2021/12/07 12:56:36;;;;;;;17.88;7.97;;;5.30;99.90;;;;;;5011114;28;20050;-53
2021/12/07 12:59:05;;;;;;;19.42;8.30;;;5.30;99.90;;;;;;5011263;28;20493;-53
2021/12/07 13:01:38;;;;;;;21.67;8.18;;;5.30;99.90;;;;;;5009566;28;20038;-54
2021/12/07 13:04:12;;;;;;;23.95;9.18;;;5.30;99.90;;;;;;5007520;28;20046;-54
2021/12/07 13:06:49;;;;;;;27.17;9.50;;;5.30;99.90;;;;;;5010769;28;20042;-53
2021/12/07 13:09:20;;;;;;;20.77;8.20;;;5.30;99.90;;;;;;5008502;28;20034;-56
2021/12/07 13:11:50;;;;;;;30.60;8.50;;;5.30;99.90;;;;;;5007498;28;20046;-51
2021/12/07 13:14:24;;;;;;;23.23;9.23;;;5.20;99.90;;;;;;5010616;28;20112;-54
2021/12/07 13:16:53;;;;;;;23.23;9.98;;;5.20;99.90;;;;;;5014150;28;20111;-53
2021/12/07 13:19:20;;;;;;;27.75;9.05;;;5.30;99.90;;;;;;5014213;28;20042;-53
2021/12/07 13:21:48;;;;;;;23.67;9.00;;;5.30;99.90;;;;;;5008304;28;20053;-54
2021/12/07 13:24:20;;;;;;;22.90;8.55;;;5.30;99.90;;;;;;5015860;28;20088;-50
2021/12/07 13:26:53;;;;;;;28.88;8.88;;;5.30;99.90;;;;;;5007338;28;20441;-49
2021/12/07 13:29:22;;;;;;;23.35;9.45;;;5.40;99.90;;;;;;5008155;28;20034;-50
2021/12/07 13:31:51;;;;;;;20.65;9.27;;;5.40;99.90;;;;;;5013619;28;20049;-50
2021/12/07 13:34:28;;;;;;;23.52;9.93;;;5.30;99.90;;;;;;5011451;28;20042;-50
2021/12/07 13:36:53;;;;;;;22.42;10.68;;;5.30;99.90;;;;;;5002772;28;20034;-52
2021/12/07 13:39:20;;;;;;;23.38;10.48;;;5.30;99.90;;;;;;5015492;28;20392;-52
2021/12/07 13:41:55;;;;;;;23.63;10.48;;;5.20;99.90;;;;;;5009729;28;20453;-51
2021/12/07 13:44:22;;;;;;;27.58;10.60;;;5.30;99.90;;;;;;5010290;28;20043;-51
2021/12/07 13:46:55;;;;;;;20.77;9.75;;;5.30;99.90;;;;;;5003785;28;20042;-50
2021/12/07 13:49:21;;;;;;;27.90;11.32;;;5.30;99.90;;;;;;5001436;28;20152;-50
2021/12/07 13:51:47;;;;;;;22.65;11.15;;;5.20;99.90;;;;;;5011246;28;20050;-55
2021/12/07 13:54:16;;;;;;;25.73;11.18;;;5.20;99.90;;;;;;4998734;28;20046;-53
2021/12/07 13:56:42;;;;;;;22.92;10.38;;;5.10;99.90;;;;;;5002850;28;20493;-53
2021/12/07 13:59:15;;;;;;;27.02;11.52;;;5.10;99.90;;;;;;5009615;28;20033;-50
2021/12/07 14:01:46;;;;;;;;;;;5.00;99.90;;;;;;5009896;28;20038;-50
2021/12/07 14:04:12;;;;;;;29.90;10.60;;;5.10;99.90;;;;;;5002230;28;19922;-50
2021/12/07 14:06:37;;;;;;;21.83;10.75;;;5.10;99.90;;;;;;5007049;28;20544;-52
2021/12/07 14:09:04;;;;;;;26.52;10.77;;;5.10;99.90;;;;;;4999546;28;20030;-55
2021/12/07 14:11:30;;;;;;;23.80;10.27;;;5.10;99.90;;;;;;4996839;28;20507;-50
2021/12/07 14:13:55;;;;;;;28.23;10.48;;;5.00;99.90;;;;;;5008754;28;20034;-51
2021/12/07 14:16:26;;;;;;;20.55;9.68;;;5.00;99.90;;;;;;5011113;28;20048;-54
2021/12/07 14:18:52;;;;;;;26.48;11.23;;;5.00;99.90;;;;;;5005825;28;20117;-51
2021/12/07 14:21:18;;;;;;;24.23;10.77;;;5.00;99.90;;;;;;5010275;28;20474;-51
2021/12/07 14:23:56;;;;;;;28.23;10.68;;;5.00;99.90;;;;;;5008894;28;20124;-50
2021/12/07 14:26:25;;;;;;;25.75;10.07;;;4.90;99.90;;;;;;5013768;28;20033;-53
2021/12/07 14:28:55;;;;;;;26.77;10.48;;;4.80;99.90;;;;;;5007721;28;20034;-51